createdAt,value
2022-10-12T00:00:12.993Z,2.85
2022-10-12T00:03:00.456Z,2.92
2022-10-12T00:05:29.649Z,3.30
2022-10-12T00:07:58.629Z,2.55
2022-10-12T00:10:28.038Z,3.17
2022-10-12T00:12:56.539Z,3.00
2022-10-12T00:15:25.516Z,2.58
2022-10-12T00:17:55.165Z,2.40
2022-10-12T00:20:23.492Z,3.47
2022-10-12T00:22:54.762Z,3.03
2022-10-12T00:25:23.427Z,2.70
2022-10-12T00:27:51.760Z,3.20
2022-10-12T00:30:20.998Z,2.60
2022-10-12T00:33:08.588Z,3.35
2022-10-12T00:35:37.039Z,3.65
2022-10-12T00:38:06.290Z,2.67
2022-10-12T00:40:36.512Z,3.20
2022-10-12T00:43:04.955Z,3.25
2022-10-12T00:45:33.596Z,3.13
2022-10-12T00:48:02.396Z,3.28
2022-10-12T00:50:33.867Z,3.20
2022-10-12T00:53:06.548Z,3.75
2022-10-12T00:55:39.620Z,2.50
2022-10-12T00:58:08.791Z,3.10
2022-10-12T01:00:40.787Z,3.50
2022-10-12T01:03:27.132Z,3.17
2022-10-12T01:05:56.128Z,3.50
2022-10-12T01:08:24.825Z,3.25
2022-10-12T01:10:53.571Z,3.63
2022-10-12T01:13:41.098Z,3.83
2022-10-12T01:16:40.063Z,3.45
2022-10-12T01:19:42.491Z,3.80
2022-10-12T01:22:31.805Z,4.05
2022-10-12T01:25:15.563Z,3.85
2022-10-12T01:27:53.971Z,3.95
2022-10-12T01:30:26.421Z,4.07
2022-10-12T01:32:57.532Z,3.92
2022-10-12T01:35:25.660Z,3.45
2022-10-12T01:38:20.726Z,4.20
2022-10-12T01:43:23.532Z,3.35
2022-10-12T01:45:53.780Z,3.97
2022-10-12T01:48:23.289Z,4.47
2022-10-12T01:50:55.845Z,3.53
2022-10-12T01:53:31.328Z,3.30
2022-10-12T01:56:12.310Z,3.53
2022-10-12T01:58:59.863Z,3.42
2022-10-12T02:01:33.552Z,2.67
2022-10-12T02:06:33.988Z,3.13
2022-10-12T02:09:07.119Z,3.72
2022-10-12T02:11:38.776Z,2.83
2022-10-12T02:14:14.360Z,3.42
2022-10-12T02:17:04.520Z,3.65
2022-10-12T02:19:38.616Z,3.00
2022-10-12T02:22:08.593Z,3.30
2022-10-12T02:24:40.818Z,3.00
2022-10-12T02:27:11.203Z,3.33
2022-10-12T02:29:43.016Z,3.05
2022-10-12T02:32:20.454Z,2.95
2022-10-12T02:35:03.050Z,3.35
2022-10-12T02:37:44.430Z,2.60
2022-10-12T02:40:13.148Z,2.90
2022-10-12T02:43:09.801Z,2.65
2022-10-12T02:45:41.091Z,3.20
2022-10-12T02:48:12.908Z,3.17
2022-10-12T02:50:41.556Z,3.15
2022-10-12T02:53:16.468Z,3.17
2022-10-12T02:55:53.649Z,3.22
2022-10-12T02:58:22.255Z,3.45
2022-10-12T03:00:51.299Z,3.00
2022-10-12T03:03:29.397Z,2.55
2022-10-12T03:05:58.168Z,3.45
2022-10-12T03:08:41.686Z,3.10
2022-10-12T03:11:12.927Z,2.72
2022-10-12T03:13:41.650Z,3.47
2022-10-12T03:16:11.179Z,3.63
2022-10-12T03:18:45.026Z,3.38
2022-10-12T03:21:15.612Z,2.97
2022-10-12T03:23:47.198Z,3.20
2022-10-12T03:26:17.112Z,4.15
2022-10-12T03:28:48.899Z,3.45
2022-10-12T03:31:17.295Z,3.33
2022-10-12T03:33:46.085Z,3.55
2022-10-12T03:36:15.318Z,3.85
2022-10-12T03:38:43.397Z,4.35
2022-10-12T03:41:12.456Z,3.90
2022-10-12T03:43:42.279Z,3.50
2022-10-12T03:46:12.158Z,4.63
2022-10-12T03:48:48.868Z,3.83
2022-10-12T03:51:18.044Z,3.92
2022-10-12T03:53:47.549Z,3.25
2022-10-12T03:56:16.294Z,3.45
2022-10-12T03:58:44.847Z,3.25
2022-10-12T04:01:13.222Z,3.65
2022-10-12T04:03:49.960Z,3.80
2022-10-12T04:06:19.088Z,3.65
2022-10-12T04:08:50.855Z,3.17
2022-10-12T04:11:20.278Z,3.47
2022-10-12T04:13:52.627Z,3.20
2022-10-12T04:16:24.071Z,3.03
2022-10-12T04:18:57.068Z,3.58
2022-10-12T04:21:31.224Z,3.35
2022-10-12T04:24:00.105Z,3.03
2022-10-12T04:26:29.056Z,3.70
2022-10-12T04:28:57.708Z,4.20
2022-10-12T04:31:26.691Z,4.07
2022-10-12T04:33:56.852Z,3.13
2022-10-12T04:36:26.484Z,3.33
2022-10-12T04:39:00.671Z,2.95
2022-10-12T04:41:32.210Z,3.53
2022-10-12T04:44:01.989Z,3.05
2022-10-12T04:46:32.460Z,3.22
2022-10-12T04:49:01.033Z,3.72
2022-10-12T04:51:29.765Z,3.10
2022-10-12T04:53:58.139Z,2.45
2022-10-12T04:56:26.909Z,2.97
2022-10-12T04:58:59.222Z,3.13
2022-10-12T05:01:30.431Z,3.42
2022-10-12T05:04:08.314Z,2.92
2022-10-12T05:06:44.759Z,3.17
2022-10-12T05:09:19.170Z,2.65
2022-10-12T05:11:47.994Z,3.42
2022-10-12T05:14:18.310Z,3.35
2022-10-12T05:16:46.946Z,3.10
2022-10-12T05:19:18.255Z,3.08
2022-10-12T05:21:46.829Z,3.20
2022-10-12T05:24:16.970Z,2.70
2022-10-12T05:26:49.227Z,2.83
2022-10-12T05:29:25.358Z,3.30
2022-10-12T05:31:54.673Z,2.63
2022-10-12T05:34:24.169Z,2.75
2022-10-12T05:36:58.316Z,4.32
2022-10-12T05:39:26.948Z,3.08
2022-10-12T05:42:10.514Z,2.40
2022-10-12T05:44:47.113Z,2.78
2022-10-12T05:47:19.233Z,3.20
2022-10-12T05:49:48.491Z,3.38
2022-10-12T05:52:17.040Z,2.88
2022-10-12T05:54:45.737Z,2.95
2022-10-12T05:57:15.262Z,3.42
2022-10-12T05:59:43.810Z,2.83
2022-10-12T06:02:16.329Z,2.50
2022-10-12T06:04:45.650Z,3.15
2022-10-12T06:07:15.378Z,2.60
2022-10-12T06:09:47.593Z,2.78
2022-10-12T06:12:17.027Z,3.22
2022-10-12T06:14:47.292Z,3.97
2022-10-12T06:17:16.893Z,3.25
2022-10-12T06:19:46.026Z,4.00
2022-10-12T06:22:15.452Z,3.58
2022-10-12T06:24:43.843Z,3.38
2022-10-12T06:27:13.889Z,4.82
2022-10-12T06:29:42.523Z,4.75
2022-10-12T06:32:11.669Z,4.10
2022-10-12T06:34:39.989Z,3.95
2022-10-12T06:37:25.389Z,4.10
2022-10-12T06:39:59.972Z,3.55
2022-10-12T06:42:32.934Z,4.33
2022-10-12T06:45:01.434Z,4.20
2022-10-12T06:47:32.733Z,3.85
2022-10-12T06:50:03.715Z,4.00
2022-10-12T06:52:36.013Z,3.53
2022-10-12T06:55:06.429Z,4.15
2022-10-12T06:57:38.784Z,3.55
2022-10-12T07:00:08.034Z,3.42
2022-10-12T07:02:55.584Z,3.67
2022-10-12T07:05:24.425Z,4.32
2022-10-12T07:07:55.102Z,3.45
2022-10-12T07:10:23.752Z,4.32
2022-10-12T07:12:52.200Z,4.05
2022-10-12T07:15:21.698Z,4.07
2022-10-12T07:17:53.441Z,4.38
2022-10-12T07:20:23.987Z,6.05
2022-10-12T07:23:10.863Z,4.53
2022-10-12T07:25:48.471Z,4.15
2022-10-12T07:28:19.506Z,5.22
2022-10-12T07:30:49.627Z,4.43
2022-10-12T07:33:26.214Z,5.53
2022-10-12T07:36:13.245Z,20.50
2022-10-12T07:38:48.781Z,6.95
2022-10-12T07:41:17.820Z,6.30
2022-10-12T07:43:46.379Z,5.15
2022-10-12T07:46:15.055Z,5.13
2022-10-12T07:48:49.826Z,4.03
2022-10-12T07:51:19.019Z,4.75
2022-10-12T07:53:47.653Z,4.55
2022-10-12T07:56:16.197Z,5.32
2022-10-12T07:58:51.930Z,4.55
2022-10-12T08:01:25.217Z,3.70
2022-10-12T08:04:02.878Z,3.72
2022-10-12T08:06:34.638Z,3.63
2022-10-12T08:09:07.171Z,4.07
2022-10-12T08:11:41.213Z,3.28
2022-10-12T08:14:16.591Z,3.30
2022-10-12T08:16:45.870Z,4.93
2022-10-12T08:19:15.096Z,3.10
2022-10-12T08:21:43.821Z,2.85
2022-10-12T08:24:13.941Z,2.80
2022-10-12T08:26:50.298Z,2.90
2022-10-12T08:29:19.441Z,2.42
2022-10-12T08:31:52.901Z,2.60
2022-10-12T08:34:32.403Z,2.33
2022-10-12T08:37:03.946Z,3.30
2022-10-12T08:39:37.989Z,2.47
2022-10-12T08:42:14.987Z,2.28
2022-10-12T08:45:05.390Z,2.90
2022-10-12T08:47:44.629Z,2.72
2022-10-12T08:50:17.792Z,2.92
2022-10-12T08:52:52.576Z,2.90
2022-10-12T08:57:53.951Z,2.67
2022-10-12T09:00:24.847Z,2.47
2022-10-12T09:03:24.781Z,1.75
2022-10-12T09:06:20.385Z,2.65
2022-10-12T09:11:19.317Z,2.10
2022-10-12T09:13:52.905Z,1.70
2022-10-12T09:16:24.085Z,1.73
2022-10-12T09:19:09.213Z,2.20
2022-10-12T09:21:40.740Z,2.30
2022-10-12T09:24:14.900Z,2.15
2022-10-12T09:26:44.491Z,2.88
2022-10-12T09:29:21.691Z,1.75
2022-10-12T09:32:03.629Z,1.60
2022-10-12T09:34:34.652Z,1.77
2022-10-12T09:37:05.873Z,2.47
2022-10-12T09:39:36.243Z,2.15
2022-10-12T09:42:11.576Z,2.15
2022-10-12T09:44:48.915Z,2.80
2022-10-12T09:47:31.381Z,2.15
2022-10-12T09:50:02.385Z,1.40
2022-10-12T09:52:36.389Z,2.22
2022-10-12T09:55:19.338Z,2.05
2022-10-12T09:57:53.747Z,2.20
2022-10-12T10:00:27.120Z,2.83
2022-10-12T10:03:30.796Z,2.13
2022-10-12T10:06:07.003Z,1.90
2022-10-12T10:08:41.758Z,1.92
2022-10-12T10:11:17.589Z,1.63
2022-10-12T10:13:48.630Z,2.10
2022-10-12T10:16:18.048Z,1.92
2022-10-12T10:18:58.116Z,2.58
2022-10-12T10:21:45.771Z,1.42
2022-10-12T10:24:29.717Z,2.20
2022-10-12T10:27:30.131Z,1.98
2022-10-12T10:30:29.213Z,2.00
2022-10-12T10:33:16.044Z,1.75
2022-10-12T10:35:58.426Z,1.85
2022-10-12T10:38:28.760Z,2.10
2022-10-12T10:40:57.970Z,1.80
2022-10-12T10:43:27.891Z,1.83
2022-10-12T10:46:00.660Z,2.13
2022-10-12T10:48:41.610Z,2.40
2022-10-12T10:51:13.667Z,2.03
2022-10-12T10:53:49.045Z,3.47
2022-10-12T10:56:30.981Z,1.80
2022-10-12T10:59:06.439Z,2.95
2022-10-12T11:01:53.938Z,1.65
2022-10-12T11:04:26.548Z,1.40
2022-10-12T11:06:56.660Z,1.60
2022-10-12T11:09:29.926Z,1.90
2022-10-12T11:12:02.520Z,1.38
2022-10-12T11:14:35.449Z,1.88
2022-10-12T11:17:08.475Z,2.25
2022-10-12T11:19:44.557Z,3.03
2022-10-12T11:22:15.770Z,2.40
2022-10-12T11:24:46.391Z,1.88
2022-10-12T11:27:26.675Z,1.77
2022-10-12T11:30:08.936Z,1.90
2022-10-12T11:32:46.168Z,3.72
2022-10-12T11:35:28.590Z,2.08
2022-10-12T11:38:06.161Z,2.30
2022-10-12T11:43:37.181Z,2.20
2022-10-12T11:46:08.162Z,2.80
2022-10-12T11:48:57.288Z,2.28
2022-10-12T11:51:25.685Z,2.05
2022-10-12T11:54:02.494Z,2.47
2022-10-12T11:56:43.083Z,2.35
2022-10-12T11:59:14.184Z,2.20
2022-10-12T12:02:02.565Z,4.38
2022-10-12T12:04:42.095Z,2.53
2022-10-12T12:07:29.493Z,2.15
2022-10-12T12:09:57.679Z,2.72
2022-10-12T12:12:27.744Z,2.40
2022-10-12T12:14:55.660Z,3.60
2022-10-12T12:17:25.896Z,2.75
2022-10-12T12:20:05.411Z,2.50
2022-10-12T12:22:40.189Z,2.40
2022-10-12T12:25:11.412Z,3.28
2022-10-12T12:27:51.977Z,3.25
2022-10-12T12:30:19.909Z,3.00
2022-10-12T12:33:15.799Z,2.75
2022-10-12T12:36:00.127Z,3.38
2022-10-12T12:38:34.170Z,2.78
2022-10-12T12:41:11.360Z,2.55
2022-10-12T12:43:51.318Z,1.98
2022-10-12T12:46:21.720Z,1.75
2022-10-12T12:48:49.703Z,2.05
2022-10-12T12:51:23.600Z,2.25
2022-10-12T12:53:53.665Z,3.08
2022-10-12T12:56:40.791Z,2.38
2022-10-12T12:59:15.329Z,2.10
2022-10-12T13:01:52.451Z,2.30
2022-10-12T13:04:34.674Z,2.30
2022-10-12T13:07:06.120Z,3.45
2022-10-12T13:09:46.071Z,2.90
2022-10-12T13:12:25.835Z,2.88
2022-10-12T13:15:19.520Z,3.63
2022-10-12T13:17:53.779Z,2.60
2022-10-12T13:20:23.786Z,2.95
2022-10-12T13:22:54.000Z,3.55
2022-10-12T13:25:31.231Z,3.80
2022-10-12T13:28:07.108Z,3.50
2022-10-12T13:30:52.341Z,3.53
2022-10-12T13:33:33.479Z,3.40
2022-10-12T13:36:06.698Z,3.50
2022-10-12T13:38:38.437Z,3.15
2022-10-12T13:41:11.054Z,3.20
2022-10-12T13:43:52.819Z,4.18
2022-10-12T13:46:41.585Z,4.45
2022-10-12T13:49:14.647Z,3.95
2022-10-12T13:51:44.054Z,4.82
2022-10-12T13:54:21.789Z,4.75
2022-10-12T13:57:06.468Z,5.25
2022-10-12T13:59:44.595Z,3.73
2022-10-12T14:02:29.015Z,4.88
2022-10-12T14:05:08.308Z,3.88
2022-10-12T14:07:43.980Z,4.40
2022-10-12T14:10:17.537Z,4.60
2022-10-12T14:12:48.060Z,5.53
2022-10-12T14:15:17.165Z,4.57
2022-10-12T14:17:50.653Z,5.57
2022-10-12T14:20:31.020Z,3.22
2022-10-12T14:23:00.497Z,4.03
2022-10-12T14:25:29.822Z,4.35
2022-10-12T14:28:00.073Z,3.95
2022-10-12T14:30:31.068Z,4.25
2022-10-12T14:33:16.384Z,3.47
2022-10-12T14:35:48.105Z,4.40
2022-10-12T14:38:31.587Z,3.20
2022-10-12T14:41:19.678Z,2.80
2022-10-12T14:44:05.267Z,3.83
2022-10-12T14:46:49.379Z,3.33
2022-10-12T14:49:36.200Z,3.50
2022-10-12T14:52:04.608Z,3.47
2022-10-12T14:54:35.707Z,3.78
2022-10-12T14:57:17.791Z,3.65
2022-10-12T15:00:34.230Z,3.37
2022-10-12T15:04:04.406Z,4.05
2022-10-12T15:06:53.582Z,4.10
2022-10-12T15:09:31.819Z,4.57
2022-10-12T15:12:02.403Z,4.25
2022-10-12T15:14:43.387Z,4.05
2022-10-12T15:17:17.597Z,3.97
2022-10-12T15:19:51.506Z,4.03
2022-10-12T15:22:25.662Z,4.40
2022-10-12T15:24:57.327Z,4.72
2022-10-12T15:27:27.236Z,5.20
2022-10-12T15:29:58.008Z,4.00
2022-10-12T15:32:28.224Z,4.95
2022-10-12T15:35:01.424Z,4.03
2022-10-12T15:37:46.421Z,5.28
2022-10-12T15:40:16.678Z,6.18
2022-10-12T15:42:49.899Z,4.23
2022-10-12T15:45:23.002Z,5.07
2022-10-12T15:47:56.816Z,4.28
2022-10-12T15:50:30.833Z,5.22
2022-10-12T15:53:09.596Z,4.63
2022-10-12T15:55:47.743Z,5.18
2022-10-12T15:58:31.070Z,4.50
2022-10-12T16:01:05.616Z,4.75
2022-10-12T16:03:45.608Z,4.47
2022-10-12T16:06:28.652Z,4.30
2022-10-12T16:09:11.934Z,4.47
2022-10-12T16:11:53.656Z,4.65
2022-10-12T16:14:29.198Z,4.85
2022-10-12T16:17:07.285Z,4.95
2022-10-12T16:19:48.140Z,5.35
2022-10-12T16:22:31.493Z,4.43
2022-10-12T16:25:11.119Z,3.85
2022-10-12T16:27:57.357Z,5.03
2022-10-12T16:30:42.694Z,4.50
2022-10-12T16:33:32.950Z,4.95
2022-10-12T16:36:13.662Z,4.40
2022-10-12T16:38:44.351Z,4.53
2022-10-12T16:41:14.498Z,4.47
2022-10-12T16:43:47.062Z,4.35
2022-10-12T16:48:56.598Z,4.50
2022-10-12T16:51:25.420Z,4.65
2022-10-12T16:53:54.298Z,4.32
2022-10-12T16:56:22.784Z,4.40
2022-10-12T16:58:51.654Z,4.72
2022-10-12T17:01:22.176Z,4.55
2022-10-12T17:03:55.769Z,4.95
2022-10-12T17:09:22.524Z,4.28
2022-10-12T17:12:07.791Z,4.32
2022-10-12T17:14:53.003Z,4.95
2022-10-12T17:17:21.771Z,5.13
2022-10-12T17:19:50.917Z,6.45
2022-10-12T17:22:20.072Z,5.10
2022-10-12T17:24:50.064Z,4.65
2022-10-12T17:27:19.283Z,5.10
2022-10-12T17:29:48.423Z,4.70
2022-10-12T17:32:17.741Z,4.60
2022-10-12T17:34:47.768Z,5.43
2022-10-12T17:37:17.317Z,4.60
2022-10-12T17:39:48.262Z,5.93
2022-10-12T17:42:17.868Z,6.13
2022-10-12T17:44:55.758Z,5.35
2022-10-12T17:47:26.588Z,5.68
2022-10-12T17:49:57.157Z,5.93
2022-10-12T17:52:28.081Z,6.65
2022-10-12T17:54:56.581Z,6.03
2022-10-12T17:57:25.020Z,5.65
2022-10-12T17:59:54.581Z,6.70
2022-10-12T18:02:24.501Z,5.78
2022-10-12T18:04:59.046Z,7.35
2022-10-12T18:07:36.002Z,6.25
2022-10-12T18:10:07.156Z,5.40
2022-10-12T18:12:45.043Z,4.95
2022-10-12T18:15:19.960Z,4.88
2022-10-12T18:18:06.353Z,5.55
2022-10-12T18:20:41.227Z,4.88
2022-10-12T18:23:15.949Z,4.97
2022-10-12T18:25:50.787Z,4.60
2022-10-12T18:28:21.057Z,5.63
2022-10-12T18:30:55.688Z,5.68
2022-10-12T18:33:30.019Z,5.65
2022-10-12T18:36:04.237Z,6.00
2022-10-12T18:38:41.610Z,5.72
2022-10-12T18:41:22.313Z,6.32
2022-10-12T18:43:58.011Z,5.85
2022-10-12T18:46:37.077Z,7.03
2022-10-12T18:49:19.642Z,6.20
2022-10-12T18:54:50.748Z,5.80
2022-10-12T18:57:32.130Z,6.63
2022-10-12T19:00:13.230Z,6.57
2022-10-12T19:03:00.739Z,7.32
2022-10-12T19:11:06.466Z,5.68
2022-10-12T19:13:37.168Z,6.22
2022-10-12T19:16:09.957Z,6.55
2022-10-12T19:18:39.242Z,5.82
2022-10-12T19:21:09.580Z,7.45
2022-10-12T19:23:38.011Z,6.18
2022-10-12T19:26:07.897Z,6.80
2022-10-12T19:28:38.891Z,5.97
2022-10-12T19:31:11.879Z,7.38
2022-10-12T19:33:42.129Z,6.15
2022-10-12T19:36:12.452Z,6.22
2022-10-12T19:38:41.074Z,6.95
2022-10-12T19:41:10.416Z,6.80
2022-10-12T19:43:39.077Z,7.38
2022-10-12T19:46:08.793Z,7.75
2022-10-12T19:48:39.281Z,8.02
2022-10-12T19:51:09.007Z,7.63
2022-10-12T19:53:41.920Z,6.85
2022-10-12T19:56:13.821Z,8.38
2022-10-12T19:58:45.251Z,7.97
2022-10-12T20:01:16.856Z,7.50
2022-10-12T20:03:49.919Z,7.38
2022-10-12T20:06:26.599Z,6.85
2022-10-12T20:09:14.168Z,5.78
2022-10-12T20:12:01.669Z,6.97
2022-10-12T20:14:49.265Z,6.88
2022-10-12T20:17:37.227Z,7.10
2022-10-12T20:20:24.953Z,7.38
2022-10-12T20:23:12.700Z,7.28
2022-10-12T20:26:00.215Z,6.85
2022-10-12T20:28:48.008Z,6.80
2022-10-12T20:31:35.663Z,6.63
2022-10-12T20:34:23.222Z,7.88
2022-10-12T20:37:11.181Z,7.38
2022-10-12T20:39:58.928Z,7.97
2022-10-12T20:42:46.495Z,7.47
2022-10-12T20:45:35.169Z,7.80
2022-10-12T20:48:22.726Z,7.90
2022-10-12T20:51:10.646Z,9.30
2022-10-12T20:54:00.730Z,7.88
2022-10-12T20:56:51.914Z,7.65
2022-10-12T20:59:22.079Z,8.02
2022-10-12T21:01:52.431Z,7.45
2022-10-12T21:04:21.324Z,8.18
2022-10-12T21:06:57.236Z,8.63
2022-10-12T21:09:26.460Z,7.78
2022-10-12T21:11:55.140Z,8.77
2022-10-12T21:14:26.312Z,8.05
2022-10-12T21:16:57.873Z,9.18
2022-10-12T21:19:45.409Z,9.88
2022-10-12T21:22:32.954Z,10.20
2022-10-12T21:25:20.522Z,11.32
2022-10-12T21:28:08.050Z,10.80
2022-10-12T21:30:38.322Z,9.13
2022-10-12T21:33:25.858Z,10.38
2022-10-12T21:35:57.896Z,10.07
2022-10-12T21:38:30.829Z,10.20
2022-10-12T21:41:00.220Z,10.43
2022-10-12T21:43:33.659Z,9.70
2022-10-12T21:46:07.805Z,11.20
2022-10-12T21:48:39.773Z,12.13
2022-10-12T21:51:14.757Z,10.90
2022-10-12T21:53:43.505Z,11.60
2022-10-12T21:56:41.155Z,11.18
2022-10-12T21:59:11.567Z,11.20
2022-10-12T22:01:59.133Z,12.65
2022-10-12T22:04:46.668Z,11.55
2022-10-12T22:07:34.276Z,11.93
2022-10-12T22:10:21.769Z,13.52
2022-10-12T22:13:09.350Z,12.32
2022-10-12T22:16:10.617Z,11.73
2022-10-12T22:18:59.421Z,12.07
2022-10-12T22:21:52.985Z,12.68
2022-10-12T22:24:22.544Z,12.98
2022-10-12T22:26:50.908Z,12.05
2022-10-12T22:29:19.209Z,12.85
2022-10-12T22:31:48.068Z,12.82
2022-10-12T22:34:16.748Z,13.48
2022-10-12T22:36:47.719Z,12.85
2022-10-12T22:39:22.204Z,12.38
2022-10-12T22:41:50.771Z,14.55
2022-10-12T22:44:19.912Z,14.07
2022-10-12T22:46:49.285Z,12.70
2022-10-12T22:49:22.827Z,14.20
2022-10-12T22:51:51.942Z,14.38
2022-10-12T22:54:24.049Z,11.80
2022-10-12T22:57:00.033Z,12.75
2022-10-12T22:59:31.445Z,12.30
2022-10-12T23:02:00.531Z,13.73
2022-10-12T23:04:35.776Z,11.93
2022-10-12T23:07:05.365Z,12.65
2022-10-12T23:09:35.995Z,11.85
2022-10-12T23:12:05.466Z,12.50
2022-10-12T23:14:36.129Z,12.77
2022-10-12T23:17:04.728Z,12.77
2022-10-12T23:19:35.092Z,12.73
2022-10-12T23:22:04.316Z,12.60
2022-10-12T23:24:36.477Z,13.07
2022-10-12T23:27:09.373Z,11.10
2022-10-12T23:29:42.151Z,12.18
2022-10-12T23:32:12.895Z,12.70
2022-10-12T23:34:41.826Z,11.30
2022-10-12T23:37:10.723Z,11.18
2022-10-12T23:39:39.783Z,12.15
2022-10-12T23:42:09.189Z,11.82
2022-10-12T23:44:38.978Z,13.13
2022-10-12T23:47:07.356Z,12.75
2022-10-12T23:49:37.298Z,12.45
2022-10-12T23:52:08.510Z,12.75
2022-10-12T23:54:37.809Z,12.25
2022-10-12T23:57:22.529Z,11.70
2022-10-12T23:59:56.481Z,13.15
